Time;durP1;ratioP1;P1;durP2;ratioP2;P2;SDS_P1;SDS_P2;PMS_P1;PMS_P2;Temp;Humidity;BMP_temperature;BMP_pressure;BME280_temperature;BME280_humidity;BME280_pressure;Samples;Min_cycle;Max_cycle;Signal;HPM_P1;HPM_P2
2022/07/19 00:00:15;;;;;;;;;;;28.60;29.60;;;;;;695175;28;1318;-87
2022/07/19 00:00:35;;;;;;;;;;;28.60;29.60;;;;;;693429;28;1330;-87
2022/07/19 00:00:56;;;;;;;;;;;28.60;29.60;;;;;;694430;28;1296;-87
2022/07/19 00:01:17;;;;;;;;;;;28.60;29.50;;;;;;691143;28;1374;-87
2022/07/19 00:01:38;;;;;;;;;;;28.60;29.60;;;;;;691424;28;1260;-86
2022/07/19 00:02:00;;;;;;;;;;;28.60;29.60;;;;;;689244;28;1219;-86
2022/07/19 00:02:20;;;;;;;;;;;28.60;29.60;;;;;;689230;28;1453;-86
2022/07/19 00:02:41;;;;;;;;;;;28.60;29.70;;;;;;690858;28;1319;-87
2022/07/19 00:03:02;;;;;;;;;;;;;;;;;;689581;28;1236;-89
2022/07/19 00:03:22;;;;;;;;;;;28.60;29.60;;;;;;692219;28;1309;-87
2022/07/19 00:03:43;;;;;;;;;;;28.60;29.60;;;;;;691703;28;1431;-86
2022/07/19 00:04:04;;;;;;;;;;;28.60;29.60;;;;;;691920;28;1248;-86
2022/07/19 00:04:24;;;;;;;;;;;28.60;29.60;;;;;;691573;28;1267;-86
2022/07/19 00:04:45;;;;;;;;;;;28.60;29.60;;;;;;691975;28;1367;-87
2022/07/19 00:05:07;;;;;;;;;;;28.60;29.50;;;;;;691619;28;1301;-88
2022/07/19 00:05:28;;;;;;;;;;;28.60;29.60;;;;;;694580;28;1327;-86
2022/07/19 00:05:49;;;;;;;;;;;28.60;29.50;;;;;;695442;28;1528;-86
2022/07/19 00:06:09;;;;;;;;;;;28.60;29.60;;;;;;696797;28;1215;-87
2022/07/19 00:06:30;;;;;;;;;;;28.60;29.60;;;;;;696676;28;1282;-89
2022/07/19 00:06:51;;;;;;;;;;;;;;;;;;697161;28;1313;-87
2022/07/19 00:07:12;;;;;;;;;;;;;;;;;;694318;28;1478;-87
2022/07/19 00:07:32;;;;;;;;;;;28.60;29.60;;;;;;691425;28;1180;-87
2022/07/19 00:07:53;;;;;;;;;;;28.60;29.60;;;;;;692256;28;1628;-86
2022/07/19 00:08:14;;;;;;;;;;;28.60;29.60;;;;;;691826;28;1955;-87
2022/07/19 00:08:35;;;;;;;;;;;28.60;29.60;;;;;;691838;28;1266;-90
2022/07/19 00:08:56;;;;;;;;;;;;;;;;;;689262;28;1337;-86
2022/07/19 00:09:16;;;;;;;;;;;28.60;29.60;;;;;;688965;28;1208;-86
2022/07/19 00:09:37;;;;;;;;;;;28.60;29.60;;;;;;689105;28;1694;-87
2022/07/19 00:09:57;;;;;;;;;;;28.60;29.60;;;;;;684680;28;1479;-87
2022/07/19 00:10:19;;;;;;;;;;;28.60;29.60;;;;;;683787;28;1428;-87
2022/07/19 00:10:43;;;;;;;;;;;28.60;29.50;;;;;;686752;28;1195;-87
2022/07/19 00:11:03;;;;;;;;;;;28.60;29.70;;;;;;691936;28;1121;-86
2022/07/19 00:11:24;;;;;;;;;;;28.60;29.60;;;;;;692486;28;1256;-87
2022/07/19 00:11:44;;;;;;;;;;;28.60;29.50;;;;;;697227;28;1392;-87
2022/07/19 00:12:05;;;;;;;;;;;28.60;29.60;;;;;;694469;28;1354;-88
2022/07/19 00:12:26;;;;;;;;;;;28.60;29.50;;;;;;689513;28;1302;-88
2022/07/19 00:12:47;;;;;;;;;;;28.60;29.60;;;;;;689295;28;725;-88
2022/07/19 00:13:07;;;;;;;;;;;28.60;29.60;;;;;;686435;28;1520;-88
2022/07/19 00:13:28;;;;;;;;;;;28.60;29.60;;;;;;688997;28;1484;-88
2022/07/19 00:13:49;;;;;;;;;;;28.60;29.60;;;;;;692092;28;1510;-89
2022/07/19 00:14:10;;;;;;;;;;;28.60;29.60;;;;;;691970;28;1419;-89
2022/07/19 00:14:30;;;;;;;;;;;28.60;29.60;;;;;;692054;28;1128;-92
2022/07/19 00:14:51;;;;;;;;;;;;;;;;;;692419;28;1200;-87
2022/07/19 00:15:12;;;;;;;;;;;;;;;;;;691052;28;1303;-88
2022/07/19 00:15:33;;;;;;;;;;;28.60;29.60;;;;;;689720;28;1121;-92
2022/07/19 00:15:55;;;;;;;;;;;28.50;29.60;;;;;;691899;28;1512;-91
2022/07/19 00:16:15;;;;;;;;;;;;;;;;;;692002;28;1371;-89
2022/07/19 00:16:36;;;;;;;;;;;28.60;29.50;;;;;;693722;28;1276;-87
2022/07/19 00:16:57;;;;;;;;;;;28.50;29.50;;;;;;692264;28;1188;-92
2022/07/19 00:17:17;;;;;;;;;;;28.50;29.50;;;;;;692408;28;1236;-89
2022/07/19 00:17:48;;;;;;;;;;;28.60;29.60;;;;;;695532;28;858;-91
2022/07/19 00:18:12;;;;;;;;;;;;;;;;;;698589;28;897;-96
2022/07/19 00:18:33;;;;;;;;;;;28.60;29.60;;;;;;696727;28;1368;-91
2022/07/19 00:19:18;;;;;;;;;;;28.60;29.50;;;;;;691468;28;1272;-88
2022/07/19 00:19:40;;;;;;;;;;;28.60;29.50;;;;;;692903;28;1360;-90
2022/07/19 00:20:01;;;;;;;;;;;28.60;29.50;;;;;;688152;28;1197;-91
2022/07/19 00:20:23;;;;;;;;;;;;;;;;;;686897;28;1201;-88
2022/07/19 00:20:44;;;;;;;;;;;28.60;29.60;;;;;;685515;28;934;-91
2022/07/19 00:21:05;;;;;;;;;;;28.60;29.60;;;;;;684744;29;1257;-93
2022/07/19 00:21:27;;;;;;;;;;;28.60;29.50;;;;;;681959;29;1210;-91
2022/07/19 00:21:47;;;;;;;;;;;28.60;29.50;;;;;;681967;29;1370;-93
2022/07/19 00:22:08;;;;;;;;;;;28.60;29.50;;;;;;684641;28;1336;-94
2022/07/19 00:22:35;;;;;;;;;;;28.60;29.50;;;;;;681617;29;1107;-94
2022/07/19 00:22:58;;;;;;;;;;;28.60;29.60;;;;;;683058;29;898;-94
2022/07/19 00:23:19;;;;;;;;;;;28.60;29.50;;;;;;682131;28;1269;-92
2022/07/19 00:23:40;;;;;;;;;;;28.60;29.50;;;;;;683244;28;954;-91
2022/07/19 00:24:03;;;;;;;;;;;28.60;29.50;;;;;;683000;29;1342;-92
2022/07/19 00:24:25;;;;;;;;;;;28.60;29.60;;;;;;685361;28;1387;-88
2022/07/19 00:24:45;;;;;;;;;;;28.60;29.50;;;;;;686976;28;1373;-91
2022/07/19 00:25:06;;;;;;;;;;;;;;;;;;686438;28;854;-95
2022/07/19 00:25:28;;;;;;;;;;;28.60;29.50;;;;;;686288;28;894;-92
2022/07/19 00:25:48;;;;;;;;;;;28.50;29.40;;;;;;684246;28;1269;-91
2022/07/19 00:26:09;;;;;;;;;;;28.60;29.50;;;;;;686052;28;1110;-92
2022/07/19 00:26:30;;;;;;;;;;;;;;;;;;686023;28;1514;-89
2022/07/19 00:26:51;;;;;;;;;;;28.50;29.50;;;;;;686095;28;1331;-92
2022/07/19 00:27:12;;;;;;;;;;;;;;;;;;685840;28;1297;-93
2022/07/19 00:27:33;;;;;;;;;;;28.60;29.50;;;;;;686417;28;921;-90
2022/07/19 00:27:53;;;;;;;;;;;28.60;29.40;;;;;;688270;28;802;-91
2022/07/19 00:28:14;;;;;;;;;;;28.60;29.50;;;;;;685843;28;1883;-90
2022/07/19 00:28:34;;;;;;;;;;;28.60;29.50;;;;;;686218;28;788;-90
2022/07/19 00:28:56;;;;;;;;;;;28.60;29.50;;;;;;683361;29;1229;-94
2022/07/19 00:29:17;;;;;;;;;;;28.60;29.50;;;;;;683593;29;1335;-89
2022/07/19 00:29:37;;;;;;;;;;;28.60;29.50;;;;;;683792;29;1108;-91
2022/07/19 00:29:58;;;;;;;;;;;28.60;29.50;;;;;;683510;29;1171;-89
2022/07/19 00:30:19;;;;;;;;;;;28.60;29.50;;;;;;683629;29;998;-91
2022/07/19 00:30:41;;;;;;;;;;;28.60;29.50;;;;;;681766;29;1198;-89
2022/07/19 00:31:04;;;;;;;;;;;;;;;;;;684180;29;894;-86
2022/07/19 00:31:25;;;;;;;;;;;28.60;29.50;;;;;;683185;29;1636;-90
2022/07/19 00:31:46;;;;;;;;;;;;;;;;;;680195;29;1262;-96
2022/07/19 00:32:07;;;;;;;;;;;28.50;29.40;;;;;;678446;29;1021;-88
2022/07/19 00:32:27;;;;;;;;;;;28.60;29.50;;;;;;676586;29;1289;-91
2022/07/19 00:32:48;;;;;;;;;;;28.60;29.50;;;;;;675627;29;1310;-92
2022/07/19 00:33:17;;;;;;;;;;;28.60;29.60;;;;;;676681;29;894;-90
2022/07/19 00:33:38;;;;;;;;;;;28.60;29.60;;;;;;680925;29;1413;-90
2022/07/19 00:33:58;;;;;;;;;;;28.60;29.50;;;;;;679451;29;1205;-93
2022/07/19 00:34:19;;;;;;;;;;;28.60;29.50;;;;;;678025;29;1213;-89
2022/07/19 00:34:40;;;;;;;;;;;28.60;29.50;;;;;;680626;29;923;-91
2022/07/19 00:35:01;;;;;;;;;;;28.60;29.50;;;;;;682130;29;1384;-90
2022/07/19 00:35:22;;;;;;;;;;;;;;;;;;681580;29;1291;-88
2022/07/19 00:35:43;;;;;;;;;;;;;;;;;;679430;29;1340;-90
2022/07/19 00:36:04;;;;;;;;;;;28.60;29.50;;;;;;678479;29;1335;-88
2022/07/19 00:36:24;;;;;;;;;;;28.60;29.50;;;;;;679012;29;1452;-88
2022/07/19 00:36:45;;;;;;;;;;;28.60;29.50;;;;;;679663;29;1206;-91
2022/07/19 00:37:06;;;;;;;;;;;;;;;;;;681891;29;871;-87
2022/07/19 00:37:27;;;;;;;;;;;28.60;29.50;;;;;;681289;29;741;-87
2022/07/19 00:37:47;;;;;;;;;;;28.60;29.40;;;;;;680932;29;1427;-88
2022/07/19 00:38:08;;;;;;;;;;;;;;;;;;681165;29;835;-88
2022/07/19 00:38:29;;;;;;;;;;;28.60;29.50;;;;;;682679;29;1206;-85
2022/07/19 00:38:49;;;;;;;;;;;28.50;29.40;;;;;;680476;29;1349;-86
2022/07/19 00:39:10;;;;;;;;;;;28.50;29.40;;;;;;680616;29;852;-87
2022/07/19 00:39:30;;;;;;;;;;;28.60;29.50;;;;;;679935;29;1488;-85
2022/07/19 00:39:51;;;;;;;;;;;;;;;;;;681761;29;1221;-87
2022/07/19 00:40:13;;;;;;;;;;;;;;;;;;679023;29;1363;-93
2022/07/19 00:40:34;;;;;;;;;;;28.60;29.50;;;;;;681203;29;1312;-94
2022/07/19 00:40:54;;;;;;;;;;;28.60;29.50;;;;;;683373;29;1215;-94
2022/07/19 00:41:21;;;;;;;;;;;28.60;29.50;;;;;;683654;29;1210;-88
2022/07/19 00:41:43;;;;;;;;;;;28.60;29.50;;;;;;683088;28;1201;-87
2022/07/19 00:42:03;;;;;;;;;;;28.60;29.50;;;;;;683184;29;1250;-86
2022/07/19 00:42:24;;;;;;;;;;;28.60;29.50;;;;;;680572;29;1791;-84
2022/07/19 00:42:44;;;;;;;;;;;28.60;29.50;;;;;;680572;29;1347;-85
2022/07/19 00:43:05;;;;;;;;;;;28.60;29.50;;;;;;684240;28;1233;-86
2022/07/19 00:43:27;;;;;;;;;;;;;;;;;;685830;28;1568;-88
2022/07/19 00:43:50;;;;;;;;;;;28.60;29.50;;;;;;685739;28;1257;-85
2022/07/19 00:44:11;;;;;;;;;;;28.60;29.50;;;;;;686672;28;1095;-86
2022/07/19 00:44:32;;;;;;;;;;;;;;;;;;690302;28;1354;-88
2022/07/19 00:45:22;;;;;;;;;;;;;;;;;;772740;23;1838;-92
2022/07/19 00:45:43;;;;;;;;;;;28.60;29.50;;;;;;685211;28;1795;-87
2022/07/19 00:46:03;;;;;;;;;;;28.60;29.50;;;;;;686918;28;1225;-87
2022/07/19 00:46:24;;;;;;;;;;;28.60;29.50;;;;;;687568;28;831;-87
2022/07/19 00:46:45;;;;;;;;;;;28.60;29.50;;;;;;679738;29;1331;-89
2022/07/19 00:47:07;;;;;;;;;;;28.60;29.50;;;;;;680843;29;1415;-86
2022/07/19 00:47:28;;;;;;;;;;;28.60;29.60;;;;;;681430;29;1198;-87
2022/07/19 00:47:50;;;;;;;;;;;28.60;29.60;;;;;;683653;28;1339;-88
2022/07/19 00:48:12;;;;;;;;;;;28.60;29.60;;;;;;689199;28;1898;-87
2022/07/19 00:48:34;;;;;;;;;;;28.60;29.60;;;;;;691834;28;1328;-87
2022/07/19 00:48:55;;;;;;;;;;;28.60;29.50;;;;;;686182;28;1464;-87
2022/07/19 00:49:26;;;;;;;;;;;;;;;;;;688384;28;886;-94
2022/07/19 00:52:08;;;;;;;;;;;;;;;;;;327646;26;1870;-89
2022/07/19 00:52:29;;;;;;;;;;;28.60;29.50;;;;;;694604;28;1471;-87
2022/07/19 00:52:51;;;;;;;;;;;28.60;29.50;;;;;;694758;28;1105;-87
2022/07/19 00:53:12;;;;;;;;;;;;;;;;;;695072;28;1473;-88
2022/07/19 00:54:41;;;;;;;;;;;28.60;29.50;;;;;;695489;28;1134;-88
2022/07/19 00:55:25;;;;;;;;;;;28.60;29.60;;;;;;695830;28;957;-88
2022/07/19 00:56:05;;;;;;;;;;;28.50;29.50;;;;;;700446;28;913;-87
2022/07/19 00:56:35;;;;;;;;;;;28.50;29.60;;;;;;694464;28;1220;-88
2022/07/19 00:56:58;;;;;;;;;;;28.50;29.50;;;;;;691652;28;1110;-87
2022/07/19 00:57:18;;;;;;;;;;;28.60;29.60;;;;;;686688;28;1389;-87
2022/07/19 00:57:39;;;;;;;;;;;28.50;29.50;;;;;;689535;28;795;-87
2022/07/19 00:58:02;;;;;;;;;;;28.60;29.60;;;;;;687208;28;1146;-87
2022/07/19 00:58:23;;;;;;;;;;;28.60;29.60;;;;;;689438;28;1390;-87
2022/07/19 00:58:44;;;;;;;;;;;28.50;29.50;;;;;;686449;28;1243;-88
2022/07/19 00:59:10;;;;;;;;;;;28.60;29.60;;;;;;684554;28;1374;-89
2022/07/19 00:59:31;;;;;;;;;;;;;;;;;;684052;29;1378;-88
2022/07/19 00:59:52;;;;;;;;;;;;;;;;;;685301;29;1410;-94
2022/07/19 01:01:32;;;;;;;;;;;28.50;29.50;;;;;;694750;28;602;-89
2022/07/19 01:01:56;;;;;;;;;;;28.60;29.70;;;;;;691988;28;1218;-87
2022/07/19 01:02:17;;;;;;;;;;;28.50;29.60;;;;;;688318;28;1119;-87
2022/07/19 01:02:39;;;;;;;;;;;28.50;29.60;;;;;;688123;28;1346;-94
2022/07/19 01:03:01;;;;;;;;;;;28.50;29.60;;;;;;688500;28;1362;-93
2022/07/19 01:03:25;;;;;;;;;;;;;;;;;;685712;29;1235;-95
2022/07/19 01:03:46;;;;;;;;;;;;;;;;;;686029;28;1104;-89
2022/07/19 01:04:07;;;;;;;;;;;28.60;29.70;;;;;;685927;28;1420;-86
2022/07/19 01:04:33;;;;;;;;;;;28.50;29.70;;;;;;691082;28;1193;-95
2022/07/19 01:05:02;;;;;;;;;;;28.50;29.60;;;;;;686050;28;1251;-96
2022/07/19 01:05:36;;;;;;;;;;;;;;;;;;;;;
2022/07/19 01:06:05;;;;;;;;;;;28.60;29.70;;;;;;688917;28;1095;-93
2022/07/19 01:06:30;;;;;;;;;;;28.50;29.50;;;;;;687863;28;1183;-87
2022/07/19 01:06:57;;;;;;;;;;;28.50;29.60;;;;;;686620;29;1029;-87
2022/07/19 01:07:19;;;;;;;;;;;28.50;29.70;;;;;;685806;29;995;-93
2022/07/19 01:07:40;;;;;;;;;;;28.60;29.70;;;;;;684177;29;1245;-86
2022/07/19 01:08:01;;;;;;;;;;;28.60;29.70;;;;;;684684;29;950;-87
2022/07/19 01:08:29;;;;;;;;;;;;;;;;;;688141;28;1946;-91
2022/07/19 01:08:55;;;;;;;;;;;28.50;29.50;;;;;;686423;29;1226;-91
2022/07/19 01:09:17;;;;;;;;;;;28.50;29.60;;;;;;683121;29;1186;-89
2022/07/19 01:09:41;;;;;;;;;;;;;;;;;;683786;29;1484;-92
2022/07/19 01:10:07;;;;;;;;;;;28.50;29.60;;;;;;686588;28;864;-88
2022/07/19 01:10:28;;;;;;;;;;;28.50;29.60;;;;;;686650;28;1158;-86
2022/07/19 01:10:49;;;;;;;;;;;28.60;29.70;;;;;;691202;28;1084;-89
2022/07/19 01:11:09;;;;;;;;;;;28.60;29.70;;;;;;691781;28;1111;-91
2022/07/19 01:11:31;;;;;;;;;;;28.50;29.60;;;;;;688273;28;1378;-86
2022/07/19 01:11:51;;;;;;;;;;;28.50;29.60;;;;;;689051;28;1324;-86
2022/07/19 01:12:12;;;;;;;;;;;;;;;;;;688615;28;1445;-86
2022/07/19 01:12:34;;;;;;;;;;;28.60;29.70;;;;;;686828;28;1006;-90
2022/07/19 01:12:56;;;;;;;;;;;28.50;29.60;;;;;;688838;28;855;-91
2022/07/19 01:13:18;;;;;;;;;;;28.50;29.60;;;;;;688532;28;1273;-89
2022/07/19 01:13:38;;;;;;;;;;;28.50;29.60;;;;;;687456;28;1327;-86
2022/07/19 01:14:10;;;;;;;;;;;28.50;29.60;;;;;;686045;28;1162;-87
2022/07/19 01:14:31;;;;;;;;;;;28.50;29.60;;;;;;683407;28;1181;-85
2022/07/19 01:14:53;;;;;;;;;;;;;;;;;;684000;29;748;-90
2022/07/19 01:15:14;;;;;;;;;;;;;;;;;;683627;28;1563;-87
2022/07/19 01:15:38;;;;;;;;;;;28.50;29.60;;;;;;683173;28;1240;-87
2022/07/19 01:15:59;;;;;;;;;;;28.50;29.60;;;;;;683802;29;864;-96
2022/07/19 01:16:22;;;;;;;;;;;28.50;29.60;;;;;;684868;28;1026;-91
2022/07/19 01:18:14;;;;;;;;;;;28.50;29.60;;;;;;690888;28;637;-89
2022/07/19 01:18:35;;;;;;;;;;;28.50;29.40;;;;;;686618;28;863;-92
2022/07/19 01:18:56;;;;;;;;;;;28.50;29.40;;;;;;683003;28;1471;-89
2022/07/19 01:19:17;;;;;;;;;;;28.50;29.50;;;;;;683111;29;1313;-91
2022/07/19 01:19:54;;;;;;;;;;;28.50;29.50;;;;;;683936;29;1205;-91
2022/07/19 01:20:15;;;;;;;;;;;28.50;29.40;;;;;;683493;29;1357;-94
2022/07/19 01:20:36;;;;;;;;;;;28.50;29.40;;;;;;684919;28;1558;-94
2022/07/19 01:20:57;;;;;;;;;;;28.50;29.50;;;;;;688369;28;1138;-86
2022/07/19 01:21:35;;;;;;;;;;;28.50;29.40;;;;;;687010;28;1506;-91
2022/07/19 01:21:55;;;;;;;;;;;28.50;29.40;;;;;;682903;29;1278;-92
2022/07/19 01:22:16;;;;;;;;;;;28.50;29.30;;;;;;683320;29;1178;-89
2022/07/19 01:22:37;;;;;;;;;;;;;;;;;;680550;29;1242;-88
2022/07/19 01:22:57;;;;;;;;;;;28.50;29.50;;;;;;680407;29;1273;-87
2022/07/19 01:23:19;;;;;;;;;;;28.50;29.40;;;;;;679844;29;1376;-88
2022/07/19 01:23:40;;;;;;;;;;;28.50;29.50;;;;;;677897;29;1310;-91
2022/07/19 01:24:00;;;;;;;;;;;28.50;29.40;;;;;;680630;29;1234;-93
2022/07/19 01:24:21;;;;;;;;;;;28.50;29.40;;;;;;681455;29;1409;-93
2022/07/19 01:24:42;;;;;;;;;;;;;;;;;;681553;29;1345;-89
2022/07/19 01:25:03;;;;;;;;;;;28.50;29.40;;;;;;681994;29;1275;-96
2022/07/19 01:25:29;;;;;;;;;;;28.50;29.30;;;;;;681148;29;1400;-90
2022/07/19 01:25:52;;;;;;;;;;;28.50;29.30;;;;;;683546;29;768;-88
2022/07/19 01:26:13;;;;;;;;;;;;;;;;;;686254;28;898;-88
2022/07/19 01:26:34;;;;;;;;;;;28.50;29.30;;;;;;686519;28;1249;-90
2022/07/19 01:26:54;;;;;;;;;;;28.50;29.30;;;;;;683536;29;1249;-92
2022/07/19 01:27:15;;;;;;;;;;;28.50;29.30;;;;;;682254;29;1256;-94
2022/07/19 01:27:43;;;;;;;;;;;28.50;29.30;;;;;;683389;29;1414;-92
2022/07/19 01:28:05;;;;;;;;;;;28.50;29.30;;;;;;683294;29;1099;-95
2022/07/19 01:28:27;;;;;;;;;;;28.50;29.40;;;;;;683191;28;1961;-86
2022/07/19 01:28:48;;;;;;;;;;;28.50;29.30;;;;;;682959;28;1253;-86
2022/07/19 01:29:14;;;;;;;;;;;28.50;29.30;;;;;;683003;29;1107;-86
2022/07/19 01:29:38;;;;;;;;;;;28.50;29.30;;;;;;680909;29;1248;-90
2022/07/19 01:29:59;;;;;;;;;;;;;;;;;;678851;29;1167;-92
2022/07/19 01:30:21;;;;;;;;;;;28.50;29.30;;;;;;679370;29;1240;-92
2022/07/19 01:31:11;;;;;;;;;;;28.50;29.30;;;;;;680767;29;885;-89
2022/07/19 01:31:32;;;;;;;;;;;;;;;;;;683130;29;1240;-86
2022/07/19 01:31:52;;;;;;;;;;;28.50;29.30;;;;;;684455;28;1206;-87
2022/07/19 01:32:13;;;;;;;;;;;;;;;;;;684672;28;1415;-89
2022/07/19 01:32:34;;;;;;;;;;;28.50;29.30;;;;;;686274;28;1011;-92
2022/07/19 01:32:56;;;;;;;;;;;28.50;29.30;;;;;;683293;29;1324;-92
2022/07/19 01:33:17;;;;;;;;;;;;;;;;;;683269;28;1197;-89
2022/07/19 01:33:38;;;;;;;;;;;28.50;29.30;;;;;;682927;29;1257;-88
2022/07/19 01:33:59;;;;;;;;;;;28.50;29.30;;;;;;683003;29;820;-86
2022/07/19 01:34:19;;;;;;;;;;;28.50;29.30;;;;;;680368;29;1461;-91
2022/07/19 01:34:40;;;;;;;;;;;28.50;29.30;;;;;;681196;29;1093;-91
2022/07/19 01:35:00;;;;;;;;;;;28.50;29.40;;;;;;680854;29;1175;-91
2022/07/19 01:35:22;;;;;;;;;;;28.50;29.30;;;;;;680843;29;1479;-90
2022/07/19 01:35:42;;;;;;;;;;;28.50;29.30;;;;;;678730;29;1465;-91
2022/07/19 01:36:03;;;;;;;;;;;;;;;;;;681124;29;1175;-86
2022/07/19 01:36:24;;;;;;;;;;;28.50;29.30;;;;;;680456;29;1165;-87
2022/07/19 01:36:44;;;;;;;;;;;28.50;29.20;;;;;;680330;29;1293;-88
2022/07/19 01:37:05;;;;;;;;;;;28.50;29.20;;;;;;680275;29;1373;-86
2022/07/19 01:37:26;;;;;;;;;;;28.50;29.20;;;;;;680844;29;1154;-90
2022/07/19 01:37:47;;;;;;;;;;;28.50;29.20;;;;;;681206;29;1484;-93
2022/07/19 01:38:07;;;;;;;;;;;28.50;29.20;;;;;;683584;29;1213;-88
2022/07/19 01:38:28;;;;;;;;;;;28.50;29.20;;;;;;680396;29;1237;-86
2022/07/19 01:38:49;;;;;;;;;;;28.50;29.20;;;;;;680334;29;1476;-87
2022/07/19 01:39:09;;;;;;;;;;;28.50;29.20;;;;;;680615;29;1424;-86
2022/07/19 01:39:30;;;;;;;;;;;28.50;29.30;;;;;;683289;28;1324;-91
2022/07/19 01:39:51;;;;;;;;;;;28.50;29.30;;;;;;683832;28;872;-94
2022/07/19 01:40:12;;;;;;;;;;;;;;;;;;686460;28;1215;-91
2022/07/19 01:40:33;;;;;;;;;;;28.50;29.30;;;;;;685601;28;1131;-87
2022/07/19 01:40:54;;;;;;;;;;;;;;;;;;685607;28;1226;-86
2022/07/19 01:41:14;;;;;;;;;;;28.50;29.30;;;;;;685705;28;1384;-90
2022/07/19 01:41:35;;;;;;;;;;;28.50;29.30;;;;;;683192;28;1407;-88
2022/07/19 01:41:55;;;;;;;;;;;28.50;29.30;;;;;;683747;28;1233;-87
2022/07/19 01:42:16;;;;;;;;;;;28.50;29.30;;;;;;685929;28;1491;-86
2022/07/19 01:42:37;;;;;;;;;;;28.50;29.40;;;;;;685581;28;1211;-86
2022/07/19 01:42:57;;;;;;;;;;;28.50;29.30;;;;;;683222;28;1331;-87
2022/07/19 01:43:18;;;;;;;;;;;28.50;29.40;;;;;;685584;28;1126;-90
2022/07/19 01:43:39;;;;;;;;;;;28.50;29.30;;;;;;685411;28;1269;-92
2022/07/19 01:44:00;;;;;;;;;;;28.50;29.30;;;;;;685423;28;1221;-90
2022/07/19 01:44:21;;;;;;;;;;;28.50;29.30;;;;;;685849;28;1261;-86
2022/07/19 01:44:42;;;;;;;;;;;;;;;;;;685970;28;1241;-87
2022/07/19 01:45:03;;;;;;;;;;;28.50;29.30;;;;;;685880;28;1350;-89
2022/07/19 01:45:24;;;;;;;;;;;28.50;29.30;;;;;;687899;28;1363;-91
2022/07/19 01:45:45;;;;;;;;;;;28.50;29.30;;;;;;685333;28;1245;-93
2022/07/19 01:46:05;;;;;;;;;;;28.50;29.30;;;;;;685576;28;1249;-91
2022/07/19 01:46:26;;;;;;;;;;;28.50;29.30;;;;;;686245;28;791;-86
2022/07/19 01:46:47;;;;;;;;;;;28.50;29.30;;;;;;685996;28;1387;-86
2022/07/19 01:47:07;;;;;;;;;;;28.50;29.30;;;;;;688100;28;949;-89
2022/07/19 01:47:28;;;;;;;;;;;28.50;29.30;;;;;;686040;28;787;-91
2022/07/19 01:47:48;;;;;;;;;;;28.50;29.30;;;;;;685762;28;1320;-90
2022/07/19 01:48:09;;;;;;;;;;;28.50;29.30;;;;;;683137;29;1902;-91
2022/07/19 01:48:30;;;;;;;;;;;28.50;29.30;;;;;;683331;28;1313;-91
2022/07/19 01:48:51;;;;;;;;;;;;;;;;;;682886;28;1653;-87
2022/07/19 01:49:11;;;;;;;;;;;28.50;29.30;;;;;;682911;29;1163;-86
2022/07/19 01:49:32;;;;;;;;;;;;;;;;;;683279;28;1178;-87
2022/07/19 01:49:53;;;;;;;;;;;28.50;29.30;;;;;;686158;28;1238;-93
2022/07/19 01:50:13;;;;;;;;;;;;;;;;;;688134;28;1373;-91
2022/07/19 01:50:34;;;;;;;;;;;28.50;29.30;;;;;;685948;28;1392;-92
2022/07/19 01:50:55;;;;;;;;;;;28.50;29.30;;;;;;688230;28;1466;-87
2022/07/19 01:51:15;;;;;;;;;;;28.50;29.30;;;;;;687900;28;1202;-86
2022/07/19 01:51:36;;;;;;;;;;;;;;;;;;685639;28;965;-86
2022/07/19 01:51:57;;;;;;;;;;;28.40;29.20;;;;;;688340;28;1279;-91
2022/07/19 01:52:17;;;;;;;;;;;28.50;29.30;;;;;;685934;28;1379;-90
2022/07/19 01:52:38;;;;;;;;;;;28.50;29.30;;;;;;688267;28;914;-92
2022/07/19 01:52:59;;;;;;;;;;;28.50;29.30;;;;;;685304;28;1462;-86
2022/07/19 01:53:20;;;;;;;;;;;28.50;29.30;;;;;;682807;29;1388;-87
2022/07/19 01:53:40;;;;;;;;;;;28.50;29.30;;;;;;685543;28;1493;-87
2022/07/19 01:54:01;;;;;;;;;;;28.50;29.30;;;;;;683057;28;1309;-86
2022/07/19 01:54:22;;;;;;;;;;;;;;;;;;680499;29;1384;-94
2022/07/19 01:54:42;;;;;;;;;;;28.50;29.30;;;;;;683112;29;1308;-90
2022/07/19 01:55:03;;;;;;;;;;;;;;;;;;683241;28;1392;-87
2022/07/19 01:55:24;;;;;;;;;;;28.50;29.40;;;;;;685598;28;1228;-86
2022/07/19 01:55:44;;;;;;;;;;;28.50;29.50;;;;;;685994;28;1350;-86
2022/07/19 01:56:06;;;;;;;;;;;28.40;29.20;;;;;;688352;28;877;-89
2022/07/19 01:56:26;;;;;;;;;;;28.50;29.30;;;;;;685487;28;1213;-92
2022/07/19 01:56:47;;;;;;;;;;;28.50;29.30;;;;;;680430;29;1310;-93
2022/07/19 01:57:08;;;;;;;;;;;28.50;29.20;;;;;;678179;29;1370;-95
2022/07/19 01:57:29;;;;;;;;;;;28.50;29.30;;;;;;680917;29;1333;-86
2022/07/19 01:57:50;;;;;;;;;;;28.50;29.30;;;;;;682853;29;1492;-86
2022/07/19 01:58:10;;;;;;;;;;;28.50;29.30;;;;;;683265;28;1301;-86
2022/07/19 01:58:33;;;;;;;;;;;28.50;29.30;;;;;;686138;28;708;-86
2022/07/19 01:58:53;;;;;;;;;;;28.50;29.40;;;;;;685709;28;1308;-92
2022/07/19 01:59:14;;;;;;;;;;;28.50;29.30;;;;;;684994;28;1469;-87
2022/07/19 01:59:38;;;;;;;;;;;28.50;29.30;;;;;;680401;29;1104;-95
2022/07/19 01:59:58;;;;;;;;;;;28.50;29.30;;;;;;681347;29;823;-88
2022/07/19 02:00:19;;;;;;;;;;;28.50;29.20;;;;;;680337;29;1225;-85
2022/07/19 02:00:39;;;;;;;;;;;28.50;29.30;;;;;;681525;29;807;-93
2022/07/19 02:01:00;;;;;;;;;;;28.50;29.40;;;;;;681540;29;1556;-91
2022/07/19 02:01:21;;;;;;;;;;;28.50;29.30;;;;;;684238;28;1206;-95
2022/07/19 02:01:42;;;;;;;;;;;;;;;;;;683097;29;1341;-88
2022/07/19 02:02:03;;;;;;;;;;;28.40;29.30;;;;;;683388;28;1305;-87
2022/07/19 02:02:24;;;;;;;;;;;28.50;29.30;;;;;;685996;28;862;-93
2022/07/19 02:02:44;;;;;;;;;;;28.50;29.30;;;;;;685901;28;1217;-95
2022/07/19 02:03:05;;;;;;;;;;;;;;;;;;690218;28;1274;-87
2022/07/19 02:03:26;;;;;;;;;;;28.50;29.30;;;;;;688392;28;1291;-86
2022/07/19 02:03:46;;;;;;;;;;;28.50;29.30;;;;;;688958;28;1397;-87
2022/07/19 02:04:07;;;;;;;;;;;28.50;29.30;;;;;;688888;28;1304;-89
2022/07/19 02:04:27;;;;;;;;;;;28.50;29.30;;;;;;691179;28;1073;-88
2022/07/19 02:04:49;;;;;;;;;;;28.50;29.30;;;;;;691444;28;1373;-89
2022/07/19 02:05:11;;;;;;;;;;;28.50;29.40;;;;;;694417;28;1227;-87
2022/07/19 02:05:31;;;;;;;;;;;28.50;29.30;;;;;;693639;28;1426;-94
2022/07/19 02:05:53;;;;;;;;;;;28.50;29.30;;;;;;691039;28;939;-87
2022/07/19 02:06:14;;;;;;;;;;;;;;;;;;694053;28;1347;-89
2022/07/19 02:06:34;;;;;;;;;;;28.50;29.30;;;;;;690144;28;1279;-87
2022/07/19 02:06:55;;;;;;;;;;;28.50;29.30;;;;;;688644;28;1208;-90
2022/07/19 02:07:16;;;;;;;;;;;28.40;29.20;;;;;;686971;28;1311;-88
2022/07/19 02:07:38;;;;;;;;;;;28.50;29.30;;;;;;688679;28;975;-89
2022/07/19 02:08:00;;;;;;;;;;;28.50;29.20;;;;;;685656;28;1393;-86
2022/07/19 02:08:20;;;;;;;;;;;28.50;29.20;;;;;;685637;28;1914;-86
2022/07/19 02:08:42;;;;;;;;;;;;;;;;;;686002;28;854;-94
2022/07/19 02:09:03;;;;;;;;;;;28.50;29.30;;;;;;687460;28;1414;-90
2022/07/19 02:09:24;;;;;;;;;;;;;;;;;;691352;28;894;-87
2022/07/19 02:09:44;;;;;;;;;;;28.50;29.30;;;;;;689104;28;1116;-86
2022/07/19 02:10:05;;;;;;;;;;;28.40;29.20;;;;;;689090;28;780;-87
2022/07/19 02:10:29;;;;;;;;;;;28.40;29.30;;;;;;688316;28;1441;-86
2022/07/19 02:10:49;;;;;;;;;;;28.50;29.20;;;;;;688702;28;1234;-87
2022/07/19 02:11:51;;;;;;;;;;;28.50;29.30;;;;;;689108;28;613;-90
2022/07/19 02:12:12;;;;;;;;;;;;;;;;;;691134;28;1240;-85
2022/07/19 02:12:32;;;;;;;;;;;28.40;29.20;;;;;;688203;28;1436;-87
2022/07/19 02:12:53;;;;;;;;;;;28.50;29.40;;;;;;688475;28;1154;-87
2022/07/19 02:13:14;;;;;;;;;;;;;;;;;;688336;28;1201;-86
2022/07/19 02:13:34;;;;;;;;;;;28.40;29.30;;;;;;685683;28;1175;-87
2022/07/19 02:13:55;;;;;;;;;;;28.40;29.20;;;;;;686008;28;1302;-87
2022/07/19 02:14:15;;;;;;;;;;;28.40;29.40;;;;;;688756;28;909;-89
2022/07/19 02:14:36;;;;;;;;;;;28.40;29.30;;;;;;688144;28;1189;-87
2022/07/19 02:14:56;;;;;;;;;;;28.40;29.30;;;;;;688735;28;1371;-89
2022/07/19 02:15:17;;;;;;;;;;;;;;;;;;688598;28;1240;-85
2022/07/19 02:15:43;;;;;;;;;;;28.50;29.40;;;;;;691210;28;1299;-86
2022/07/19 02:16:03;;;;;;;;;;;;;;;;;;688391;28;1185;-90
2022/07/19 02:16:24;;;;;;;;;;;28.40;29.30;;;;;;689557;28;1148;-85
2022/07/19 02:16:45;;;;;;;;;;;28.40;29.30;;;;;;688365;28;1212;-86
2022/07/19 02:17:05;;;;;;;;;;;28.40;29.30;;;;;;685271;28;1333;-85
2022/07/19 02:17:26;;;;;;;;;;;28.40;29.30;;;;;;686623;28;1244;-86
2022/07/19 02:17:46;;;;;;;;;;;28.40;29.30;;;;;;685858;28;1110;-87
2022/07/19 02:18:07;;;;;;;;;;;28.40;29.20;;;;;;685823;28;1561;-87
2022/07/19 02:18:28;;;;;;;;;;;;;;;;;;685893;28;1228;-86
2022/07/19 02:18:48;;;;;;;;;;;28.40;29.30;;;;;;688384;28;1106;-89
2022/07/19 02:19:09;;;;;;;;;;;28.40;29.40;;;;;;685868;28;1342;-85
2022/07/19 02:19:29;;;;;;;;;;;28.40;29.30;;;;;;688658;28;894;-86
2022/07/19 02:19:50;;;;;;;;;;;;;;;;;;691129;28;1087;-87
2022/07/19 02:20:12;;;;;;;;;;;;;;;;;;691155;28;1339;-85
2022/07/19 02:20:34;;;;;;;;;;;28.40;29.60;;;;;;688559;28;882;-88
2022/07/19 02:20:55;;;;;;;;;;;28.40;29.50;;;;;;685890;28;1332;-87
2022/07/19 02:21:15;;;;;;;;;;;28.40;29.30;;;;;;688384;28;1252;-90
2022/07/19 02:21:36;;;;;;;;;;;28.50;29.40;;;;;;689101;28;1330;-89
2022/07/19 02:21:57;;;;;;;;;;;28.40;29.30;;;;;;691039;28;1508;-88